Time;durP1;ratioP1;P1;durP2;ratioP2;P2;SDS_P1;SDS_P2;PMS_P1;PMS_P2;Temp;Humidity;BMP_temperature;BMP_pressure;BME280_temperature;BME280_humidity;BME280_pressure;Samples;Min_cycle;Max_cycle;Signal;HPM_P1;HPM_P2
2022/07/30 00:00:28;;;;;;;9.80;8.18;;;;;;;;;;5052927;28;20041;-80
2022/07/30 00:03:14;;;;;;;10.50;8.10;;;;;;;;;;5053197;28;20045;-79
2022/07/30 00:06:00;;;;;;;10.88;8.60;;;;;;;;;;5056436;28;20040;-81
2022/07/30 00:08:45;;;;;;;9.02;7.60;;;;;;;;;;5063431;28;20033;-80
2022/07/30 00:11:31;;;;;;;8.63;7.72;;;;;;;;;;5056300;28;20040;-79
2022/07/30 00:14:16;;;;;;;8.75;7.85;;;;;;;;;;5056379;28;20049;-79
2022/07/30 00:17:03;;;;;;;10.38;7.95;;;;;;;;;;5047669;28;20040;-79
2022/07/30 00:19:48;;;;;;;10.07;8.32;;;;;;;;;;5056689;28;20041;-78
2022/07/30 00:22:34;;;;;;;11.68;8.82;;;;;;;;;;5063141;28;20049;-83
2022/07/30 00:25:19;;;;;;;9.60;8.55;;;;;;;;;;5062696;28;20485;-77
2022/07/30 00:28:05;;;;;;;12.13;8.80;;;;;;;;;;5056226;28;20426;-76
2022/07/30 00:30:51;;;;;;;11.15;8.25;;;;;;;;;;5065115;28;20041;-77
2022/07/30 00:33:37;;;;;;;10.20;8.23;;;;;;;;;;5062295;28;20041;-81
2022/07/30 00:36:23;;;;;;;9.73;8.50;;;;;;;;;;5040989;28;20037;-80
2022/07/30 00:39:09;;;;;;;13.02;8.40;;;;;;;;;;5047416;28;20041;-81
2022/07/30 00:41:58;;;;;;;9.55;8.55;;;;;;;;;;5055657;28;20041;-76
2022/07/30 00:44:44;;;;;;;12.13;8.70;;;;;;;;;;5043285;28;20041;-76
2022/07/30 00:47:29;;;;;;;15.73;9.18;;;;;;;;;;5047147;28;20041;-77
2022/07/30 00:50:14;;;;;;;10.73;8.73;;;;;;;;;;5055726;28;20386;-79
2022/07/30 00:52:59;;;;;;;10.82;8.65;;;;;;;;;;5059165;28;20044;-80
2022/07/30 00:55:45;;;;;;;10.40;8.10;;;;;;;;;;5055743;28;20045;-80
2022/07/30 00:58:31;;;;;;;11.45;8.40;;;;;;;;;;5047312;28;20045;-81
2022/07/30 01:01:17;;;;;;;14.75;9.02;;;;;;;;;;5046873;28;20044;-77
2022/07/30 01:04:02;;;;;;;10.43;9.10;;;;;;;;;;5055329;28;20490;-77
2022/07/30 01:06:48;;;;;;;9.88;8.82;;;;;;;;;;5061872;28;20402;-76
2022/07/30 01:09:33;;;;;;;9.80;8.52;;;;;;;;;;5055296;28;20037;-76
2022/07/30 01:12:21;;;;;;;11.38;8.70;;;;;;;;;;5055138;28;20041;-81
2022/07/30 01:15:08;;;;;;;11.77;8.88;;;;;;;;;;5046921;28;20048;-80
2022/07/30 01:17:57;;;;;;;9.32;8.00;;;;;;;;;;5055290;28;20037;-76
2022/07/30 01:20:55;;;;;;;11.27;8.50;;;;;;;;;;5046892;28;20032;-82
2022/07/30 01:23:44;;;;;;;10.07;8.13;;;;;;;;;;5046679;28;20049;-80
2022/07/30 01:26:30;;;;;;;10.40;8.40;;;;;;;;;;5046831;28;20053;-78
2022/07/30 01:29:17;;;;;;;10.75;9.10;;;;;;;;;;5046828;28;20394;-79
2022/07/30 01:32:06;;;;;;;17.27;8.50;;;;;;;;;;5046514;28;20041;-83
2022/07/30 01:34:55;;;;;;;9.30;8.30;;;;;;;;;;5054891;28;20394;-81
2022/07/30 01:37:43;;;;;;;15.50;8.48;;;;;;;;;;5046313;28;20044;-84
2022/07/30 01:40:29;;;;;;;10.55;8.00;;;;;;;;;;5032258;28;20041;-83
2022/07/30 01:43:18;;;;;;;9.20;8.18;;;;;;;;;;5046644;28;20470;-84
2022/07/30 01:46:06;;;;;;;12.80;9.00;;;;;;;;;;5034908;28;20423;-84
2022/07/30 01:48:53;;;;;;;9.60;8.15;;;;;;;;;;5032597;28;20386;-84
2022/07/30 01:51:39;;;;;;;10.68;8.35;;;;;;;;;;5046293;28;20045;-80
2022/07/30 01:54:29;;;;;;;8.63;7.68;;;;;;;;;;5046438;28;20045;-81
2022/07/30 01:57:18;;;;;;;9.30;8.23;;;;;;;;;;5045782;28;20049;-81
2022/07/30 02:00:06;;;;;;;11.63;8.32;;;;;;;;;;5046314;28;20053;-81
2022/07/30 02:03:03;;;;;;;9.98;8.07;;;;;;;;;;5054292;28;20490;-84
2022/07/30 02:05:56;;;;;;;12.55;9.07;;;;;;;;;;5046337;28;20033;-84
2022/07/30 02:08:50;;;;;;;10.43;8.20;;;;;;;;;;5054174;28;20038;-84
2022/07/30 02:14:48;;;;;;;9.88;8.88;;;;;;;;;;5045831;28;20037;-84
2022/07/30 02:17:40;;;;;;;11.80;8.95;;;;;;;;;;5031699;28;20045;-80
2022/07/30 02:20:28;;;;;;;11.20;8.50;;;;;;;;;;5053979;28;20386;-82
2022/07/30 02:23:15;;;;;;;11.38;8.65;;;;;;;;;;5045770;28;20040;-83
2022/07/30 02:26:02;;;;;;;10.75;8.40;;;;;;;;;;5046116;28;20378;-80
2022/07/30 02:28:53;;;;;;;11.15;8.70;;;;;;;;;;5045101;28;20049;-83
2022/07/30 02:31:41;;;;;;;12.05;9.30;;;;;;;;;;5032255;28;20049;-83
2022/07/30 02:34:28;;;;;;;10.90;8.80;;;;;;;;;;5060168;28;20037;-84
2022/07/30 02:37:21;;;;;;;10.13;8.65;;;;;;;;;;5045610;28;20041;-83
2022/07/30 02:40:08;;;;;;;9.77;8.77;;;;;;;;;;5054185;28;20045;-83
2022/07/30 02:42:55;;;;;;;11.70;9.45;;;;;;;;;;5045462;28;20053;-81
2022/07/30 02:45:46;;;;;;;9.55;8.57;;;;;;;;;;5039234;28;20498;-83
2022/07/30 02:48:32;;;;;;;11.27;9.10;;;;;;;;;;5050746;28;20040;-80
2022/07/30 02:51:21;;;;;;;12.07;9.48;;;;;;;;;;5053354;28;20041;-81
2022/07/30 02:54:08;;;;;;;11.15;9.35;;;;;;;;;;5053780;28;20398;-81
2022/07/30 02:56:56;;;;;;;10.93;9.10;;;;;;;;;;5044926;28;20041;-82
2022/07/30 02:59:43;;;;;;;13.10;9.57;;;;;;;;;;5045667;28;20044;-81
2022/07/30 03:02:33;;;;;;;11.57;9.43;;;;;;;;;;5045079;28;20037;-79
2022/07/30 03:05:18;;;;;;;10.38;8.90;;;;;;;;;;5053038;28;20107;-79
2022/07/30 03:08:05;;;;;;;14.40;8.98;;;;;;;;;;5053138;28;20575;-81
2022/07/30 03:10:54;;;;;;;11.50;9.23;;;;;;;;;;5045240;28;20049;-81
2022/07/30 03:13:40;;;;;;;9.75;8.77;;;;;;;;;;5039431;28;20103;-79
2022/07/30 03:16:27;;;;;;;10.40;8.50;;;;;;;;;;5045093;28;20045;-78
2022/07/30 03:19:15;;;;;;;12.57;8.70;;;;;;;;;;5044477;28;20045;-80
2022/07/30 03:22:03;;;;;;;11.88;8.18;;;;;;;;;;5045675;28;20045;-81
2022/07/30 03:24:50;;;;;;;12.10;9.68;;;;;;;;;;5044513;28;20045;-78
2022/07/30 03:27:37;;;;;;;13.95;8.93;;;;;;;;;;5053145;28;20486;-78
2022/07/30 03:30:24;;;;;;;13.50;9.10;;;;;;;;;;5044044;28;20398;-81
2022/07/30 03:33:11;;;;;;;11.52;8.73;;;;;;;;;;5053118;28;20037;-77
2022/07/30 03:35:58;;;;;;;15.07;8.85;;;;;;;;;;5044877;28;20390;-78
2022/07/30 03:38:44;;;;;;;12.27;9.52;;;;;;;;;;5046158;28;20041;-78
2022/07/30 03:41:30;;;;;;;13.15;9.55;;;;;;;;;;5048334;28;20390;-77
2022/07/30 03:44:15;;;;;;;11.48;8.98;;;;;;;;;;5055801;28;20037;-78
2022/07/30 03:47:03;;;;;;;13.32;9.75;;;;;;;;;;5048460;28;20037;-78
2022/07/30 03:49:51;;;;;;;11.82;9.77;;;;;;;;;;5048313;28;20044;-81
2022/07/30 03:52:41;;;;;;;12.68;9.27;;;;;;;;;;5056169;28;20041;-78
2022/07/30 03:55:35;;;;;;;11.60;9.98;;;;;;;;;;5048196;28;20041;-81
2022/07/30 03:58:56;;;;;;;11.95;9.57;;;;;;;;;;5062833;28;20405;-79
2022/07/30 04:01:41;;;;;;;12.77;10.20;;;;;;;;;;5048068;28;20474;-79
2022/07/30 04:04:34;;;;;;;12.25;9.95;;;;;;;;;;5047599;28;20482;-80
2022/07/30 04:07:20;;;;;;;12.82;9.40;;;;;;;;;;5047640;28;20053;-80
2022/07/30 04:10:06;;;;;;;12.55;9.25;;;;;;;;;;5047951;28;20057;-79
2022/07/30 04:13:15;;;;;;;10.88;9.15;;;;;;;;;;5035904;28;20045;-79
2022/07/30 04:16:19;;;;;;;12.68;9.35;;;;;;;;;;5047823;28;20401;-81
2022/07/30 04:19:08;;;;;;;14.85;9.82;;;;;;;;;;5047871;28;20049;-79
2022/07/30 04:21:55;;;;;;;15.38;8.98;;;;;;;;;;5056412;28;20045;-79
2022/07/30 04:24:42;;;;;;;11.52;9.45;;;;;;;;;;5047868;28;20049;-81
2022/07/30 04:27:29;;;;;;;11.30;9.43;;;;;;;;;;5055918;28;20425;-78
2022/07/30 04:30:15;;;;;;;15.25;9.43;;;;;;;;;;5056315;28;20040;-79
2022/07/30 04:33:03;;;;;;;11.63;8.82;;;;;;;;;;5047520;28;20049;-80
2022/07/30 04:36:21;;;;;;;10.43;9.15;;;;;;;;;;5051094;28;20037;-80
2022/07/30 04:39:07;;;;;;;12.68;8.85;;;;;;;;;;5047593;28;20053;-80
2022/07/30 04:41:52;;;;;;;15.25;8.88;;;;;;;;;;5047383;28;20045;-84
2022/07/30 04:44:56;;;;;;;14.10;7.95;;;;;;;;;;5042970;28;20044;-84
2022/07/30 04:48:10;;;;;;;13.63;8.38;;;;;;;;;;5052368;28;20406;-81
2022/07/30 04:51:24;;;;;;;10.02;8.05;;;;;;;;;;5054747;28;20041;-83
2022/07/30 04:54:12;;;;;;;10.65;8.30;;;;;;;;;;5047606;28;20398;-80
2022/07/30 04:56:58;;;;;;;12.20;9.20;;;;;;;;;;5062545;28;20470;-80
2022/07/30 04:59:44;;;;;;;12.60;9.02;;;;;;;;;;5062755;28;20410;-83
2022/07/30 05:02:30;;;;;;;10.80;8.80;;;;;;;;;;5047303;28;20045;-83
2022/07/30 05:05:17;;;;;;;14.07;9.57;;;;;;;;;;5055963;28;20048;-84
2022/07/30 05:08:04;;;;;;;14.45;9.63;;;;;;;;;;5054342;28;20048;-79
2022/07/30 05:10:50;;;;;;;14.30;9.75;;;;;;;;;;5049517;28;20041;-83
2022/07/30 05:13:36;;;;;;;14.52;10.25;;;;;;;;;;5041508;28;20049;-81
2022/07/30 05:16:23;;;;;;;16.55;11.00;;;;;;;;;;5046880;28;20482;-83
2022/07/30 05:19:10;;;;;;;12.57;9.85;;;;;;;;;;5048720;28;20041;-83
2022/07/30 05:21:56;;;;;;;15.10;10.15;;;;;;;;;;5046848;28;20482;-83
2022/07/30 05:24:43;;;;;;;17.25;10.32;;;;;;;;;;5033114;28;20049;-83
2022/07/30 05:27:28;;;;;;;14.02;10.43;;;;;;;;;;5060953;28;20056;-83
2022/07/30 05:30:13;;;;;;;17.33;10.40;;;;;;;;;;5046520;28;20041;-80
2022/07/30 05:33:05;;;;;;;11.40;9.48;;;;;;;;;;5046783;28;20053;-83
2022/07/30 05:35:51;;;;;;;15.73;10.00;;;;;;;;;;5046401;28;20478;-84
2022/07/30 05:38:40;;;;;;;13.27;10.57;;;;;;;;;;5027549;28;20068;-83
2022/07/30 05:41:44;;;;;;;16.85;10.20;;;;;;;;;;5054354;28;20036;-79
2022/07/30 05:44:34;;;;;;;14.85;9.48;;;;;;;;;;5056348;28;20052;-83
2022/07/30 05:47:20;;;;;;;13.30;9.82;;;;;;;;;;5046109;28;20053;-83
2022/07/30 05:50:06;;;;;;;12.55;10.07;;;;;;;;;;5046171;28;20397;-80
2022/07/30 05:52:51;;;;;;;13.75;10.00;;;;;;;;;;5039761;28;20041;-80
2022/07/30 05:56:00;;;;;;;11.13;9.07;;;;;;;;;;5029591;28;20049;-82
2022/07/30 05:59:06;;;;;;;14.35;9.27;;;;;;;;;;5060674;28;20037;-84
2022/07/30 06:02:21;;;;;;;12.15;9.75;;;;;;;;;;5044982;28;20041;-84
2022/07/30 06:05:31;;;;;;;13.70;8.68;;;;;;;;;;5052660;28;20406;-81
2022/07/30 06:08:19;;;;;;;13.70;8.85;;;;;;;;;;5045587;28;20044;-82
2022/07/30 06:11:07;;;;;;;9.90;8.07;;;;;;;;;;5045375;28;20450;-84
2022/07/30 06:13:53;;;;;;;11.18;8.27;;;;;;;;;;5040297;28;20041;-81
2022/07/30 06:16:39;;;;;;;10.77;7.85;;;;;;;;;;5045857;28;20044;-82
2022/07/30 06:19:25;;;;;;;9.57;8.02;;;;;;;;;;5045745;28;20044;-81
2022/07/30 06:22:10;;;;;;;10.57;8.20;;;;;;;;;;5045724;28;20036;-80
2022/07/30 06:25:00;;;;;;;10.35;8.00;;;;;;;;;;5045302;28;20041;-80
2022/07/30 06:27:46;;;;;;;15.48;9.05;;;;;;;;;;5053075;28;20045;-80
2022/07/30 06:30:32;;;;;;;11.07;8.23;;;;;;;;;;5045536;28;20044;-79
2022/07/30 06:33:18;;;;;;;12.57;8.27;;;;;;;;;;5059414;28;20401;-83
2022/07/30 06:36:04;;;;;;;11.90;8.57;;;;;;;;;;5032035;28;20048;-78
2022/07/30 06:38:57;;;;;;;11.43;8.60;;;;;;;;;;5044722;28;20045;-80
2022/07/30 06:41:57;;;;;;;10.38;8.63;;;;;;;;;;5045368;28;20041;-82
2022/07/30 06:44:45;;;;;;;13.93;8.68;;;;;;;;;;5040835;28;20399;-82
2022/07/30 06:47:42;;;;;;;12.05;8.95;;;;;;;;;;5053466;28;20044;-82
2022/07/30 06:50:28;;;;;;;16.45;9.05;;;;;;;;;;5053308;28;20049;-82
2022/07/30 06:53:13;;;;;;;10.32;8.75;;;;;;;;;;5045114;28;20471;-79
2022/07/30 06:56:17;;;;;;;10.57;8.77;;;;;;;;;;5054846;28;20041;-80
2022/07/30 06:59:10;;;;;;;11.83;8.67;;;;;;;;;;5045243;28;20045;-78
2022/07/30 07:02:19;;;;;;;11.73;9.65;;;;;;;;;;5051750;28;20049;-78
2022/07/30 07:05:24;;;;;;;13.88;9.30;;;;;;;;;;5053048;28;20041;-78
2022/07/30 07:08:09;;;;;;;13.10;9.15;;;;;;;;;;5058943;28;20049;-79
2022/07/30 07:10:58;;;;;;;11.80;8.73;;;;;;;;;;5045052;28;20048;-78
2022/07/30 07:13:49;;;;;;;13.25;9.30;;;;;;;;;;5046538;28;20409;-78
2022/07/30 07:16:43;;;;;;;12.60;8.97;;;;;;;;;;5062972;28;20486;-77
2022/07/30 07:19:47;;;;;;;;;;;;;;;;;;5057381;28;20270;-77
2022/07/30 07:22:33;;;;;;;13.05;9.15;;;;;;;;;;5064088;28;20350;-78
2022/07/30 07:25:18;;;;;;;10.48;8.43;;;;;;;;;;5048917;28;20045;-79
2022/07/30 07:28:05;;;;;;;11.88;8.63;;;;;;;;;;5055542;28;20053;-77
2022/07/30 07:30:50;;;;;;;16.77;9.57;;;;;;;;;;5063624;28;20044;-77
2022/07/30 07:33:36;;;;;;;13.18;8.88;;;;;;;;;;5048767;28;20049;-79
2022/07/30 07:36:22;;;;;;;14.38;8.40;;;;;;;;;;5048618;28;20056;-78
2022/07/30 07:39:08;;;;;;;15.10;8.88;;;;;;;;;;5041978;28;20048;-77
2022/07/30 07:41:59;;;;;;;9.90;8.38;;;;;;;;;;5048226;28;20048;-79
2022/07/30 07:44:48;;;;;;;25.20;19.40;;;;;;;;;;5043716;28;20033;-79
2022/07/30 07:47:46;;;;;;;12.50;8.20;;;;;;;;;;5048269;28;20044;-79
2022/07/30 07:50:37;;;;;;;11.68;7.65;;;;;;;;;;5048228;28;20398;-77
2022/07/30 07:53:23;;;;;;;14.07;8.35;;;;;;;;;;5061951;28;20041;-78
2022/07/30 07:56:13;;;;;;;8.80;7.55;;;;;;;;;;5048020;28;20049;-78
2022/07/30 07:59:00;;;;;;;9.55;7.80;;;;;;;;;;5047722;28;20045;-79
2022/07/30 08:01:45;;;;;;;12.73;7.75;;;;;;;;;;5047818;28;20040;-77
2022/07/30 08:04:31;;;;;;;9.85;7.13;;;;;;;;;;5055972;28;20041;-76
2022/07/30 08:07:25;;;;;;;9.65;7.25;;;;;;;;;;5063072;28;20402;-76
2022/07/30 08:10:29;;;;;;;8.05;7.22;;;;;;;;;;5055950;28;20406;-78
2022/07/30 08:13:33;;;;;;;;;;;;;;;;;;5056573;28;20049;-76
2022/07/30 08:16:22;;;;;;;9.40;7.00;;;;;;;;;;5055479;28;19917;-77
2022/07/30 08:19:13;;;;;;;11.73;6.53;;;;;;;;;;5055976;28;20037;-78
2022/07/30 08:22:02;;;;;;;10.15;6.28;;;;;;;;;;5047551;28;20045;-76
2022/07/30 08:24:48;;;;;;;11.93;6.47;;;;;;;;;;5046758;28;20049;-78
2022/07/30 08:27:34;;;;;;;7.80;6.30;;;;;;;;;;5055561;28;20053;-80
2022/07/30 08:30:20;;;;;;;9.55;6.60;;;;;;;;;;5047169;28;20052;-78
2022/07/30 08:33:05;;;;;;;9.98;7.07;;;;;;;;;;5047627;28;20398;-77
2022/07/30 08:35:51;;;;;;;12.13;7.10;;;;;;;;;;5062667;28;20045;-77
2022/07/30 08:38:37;;;;;;;9.25;7.10;;;;;;;;;;5047319;28;20402;-76
2022/07/30 08:41:24;;;;;;;7.80;6.03;;;;;;;;;;5047721;28;20045;-79
2022/07/30 08:44:11;;;;;;;7.72;5.93;;;;;;;;;;5060061;28;20474;-82
2022/07/30 08:46:58;;;;;;;10.13;6.32;;;;;;;;;;5047868;28;20394;-77
2022/07/30 08:50:05;;;;;;;9.30;6.47;;;;;;;;;;5062328;28;20053;-78
2022/07/30 08:52:54;;;;;;;11.77;6.95;;;;;;;;;;5047763;28;20037;-78
2022/07/30 08:55:40;;;;;;;6.82;5.75;;;;;;;;;;5047087;28;20045;-77
2022/07/30 08:58:33;;;;;;;10.73;6.25;;;;;;;;;;5048424;28;20040;-77
2022/07/30 09:01:21;;;;;;;8.48;5.90;;;;;;;;;;5046821;28;20049;-77
2022/07/30 09:04:07;;;;;;;7.32;5.88;;;;;;;;;;5047386;28;20045;-78
2022/07/30 09:06:52;;;;;;;10.98;6.38;;;;;;;;;;5047299;28;20045;-78
2022/07/30 09:09:39;;;;;;;9.98;6.63;;;;;;;;;;5042074;28;20056;-76
2022/07/30 09:12:34;;;;;;;12.70;6.30;;;;;;;;;;5048069;28;20056;-78
2022/07/30 09:15:21;;;;;;;9.77;6.75;;;;;;;;;;5048293;28;20045;-76
2022/07/30 09:18:06;;;;;;;10.55;6.68;;;;;;;;;;5048086;28;20057;-76
2022/07/30 09:20:57;;;;;;;7.50;6.70;;;;;;;;;;5062542;28;20482;-77
2022/07/30 09:23:59;;;;;;;8.48;6.10;;;;;;;;;;5047326;28;20041;-78
2022/07/30 09:27:04;;;;;;;7.57;6.00;;;;;;;;;;5058228;28;20048;-76
2022/07/30 09:30:08;;;;;;;7.80;6.30;;;;;;;;;;5057559;28;20144;-76
2022/07/30 09:33:13;;;;;;;7.88;6.32;;;;;;;;;;5055593;28;20041;-79
2022/07/30 09:36:30;;;;;;;10.38;6.00;;;;;;;;;;4980391;28;20045;-77
2022/07/30 09:39:50;;;;;;;8.43;6.47;;;;;;;;;;4975947;28;20058;-76
2022/07/30 09:42:43;;;;;;;9.15;6.18;;;;;;;;;;5062739;28;20398;-77
2022/07/30 09:45:29;;;;;;;10.27;6.82;;;;;;;;;;5042443;28;20049;-77
2022/07/30 09:48:23;;;;;;;10.80;7.15;;;;;;;;;;5041019;28;20465;-77
2022/07/30 09:51:09;;;;;;;9.10;6.28;;;;;;;;;;5057389;28;20041;-77
2022/07/30 09:53:58;;;;;;;8.55;6.50;;;;;;;;;;5048772;28;20053;-75
2022/07/30 09:56:45;;;;;;;13.35;6.25;;;;;;;;;;5034574;28;20049;-77
2022/07/30 09:59:31;;;;;;;7.72;6.20;;;;;;;;;;5058307;28;20049;-77
2022/07/30 10:02:17;;;;;;;8.50;6.15;;;;;;;;;;5047853;28;20045;-77
2022/07/30 10:05:23;;;;;;;10.05;6.57;;;;;;;;;;5056109;28;20374;-77
2022/07/30 10:08:08;;;;;;;8.48;6.60;;;;;;;;;;5030092;28;20041;-77
2022/07/30 10:10:54;;;;;;;10.45;6.53;;;;;;;;;;5048134;28;20049;-77
2022/07/30 10:13:41;;;;;;;10.65;6.65;;;;;;;;;;5044677;28;20049;-78
2022/07/30 10:16:27;;;;;;;9.73;6.82;;;;;;;;;;5060182;28;20044;-77
2022/07/30 10:19:15;;;;;;;12.90;7.18;;;;;;;;;;5046489;28;20044;-77
2022/07/30 10:22:19;;;;;;;9.07;6.80;;;;;;;;;;5056498;28;20041;-78
2022/07/30 10:25:26;;;;;;;10.65;6.57;;;;;;;;;;5056373;28;20044;-78
2022/07/30 10:28:30;;;;;;;9.82;6.55;;;;;;;;;;5054728;28;20041;-79
2022/07/30 10:31:16;;;;;;;11.15;6.70;;;;;;;;;;5056316;28;20057;-78
2022/07/30 10:34:02;;;;;;;17.08;6.93;;;;;;;;;;5056239;28;20045;-77
2022/07/30 10:36:55;;;;;;;12.38;7.45;;;;;;;;;;5054237;28;20053;-78
2022/07/30 10:39:53;;;;;;;16.63;10.13;;;;;;;;;;5066439;28;20405;-78
2022/07/30 10:43:15;;;;;;;15.43;11.90;;;;;;;;;;5062820;28;20041;-78
2022/07/30 10:46:22;;;;;;;11.25;6.63;;;;;;;;;;5060632;28;20044;-77
2022/07/30 10:49:13;;;;;;;11.65;7.43;;;;;;;;;;5054618;28;20045;-77
2022/07/30 10:51:59;;;;;;;15.70;8.15;;;;;;;;;;5055663;28;20037;-77
2022/07/30 10:54:46;;;;;;;12.98;7.43;;;;;;;;;;5062117;28;20041;-77
2022/07/30 10:57:31;;;;;;;10.00;7.18;;;;;;;;;;5055668;28;20053;-77
2022/07/30 11:00:17;;;;;;;11.57;6.85;;;;;;;;;;5056334;28;20048;-77
2022/07/30 11:03:26;;;;;;;10.45;8.05;;;;;;;;;;5062526;28;20402;-77
2022/07/30 11:06:14;;;;;;;10.32;8.15;;;;;;;;;;5056242;28;20045;-77
2022/07/30 11:09:00;;;;;;;8.75;6.97;;;;;;;;;;5054450;28;20061;-78
2022/07/30 11:11:46;;;;;;;12.52;9.52;;;;;;;;;;5061377;28;20045;-77
2022/07/30 11:14:46;;;;;;;19.45;14.43;;;;;;;;;;5060032;28;20041;-77
2022/07/30 11:17:59;;;;;;;12.40;8.27;;;;;;;;;;5053020;28;20041;-77
2022/07/30 11:21:17;;;;;;;14.32;8.38;;;;;;;;;;5061793;28;20041;-77
2022/07/30 11:24:03;;;;;;;9.38;7.65;;;;;;;;;;5054529;28;20041;-77
2022/07/30 11:26:49;;;;;;;10.13;7.28;;;;;;;;;;5054540;28;20037;-78
2022/07/30 11:29:39;;;;;;;9.55;6.93;;;;;;;;;;5054294;28;20505;-77
2022/07/30 11:32:26;;;;;;;10.20;7.50;;;;;;;;;;5053416;28;20037;-75
2022/07/30 11:35:13;;;;;;;12.93;7.35;;;;;;;;;;5053476;28;20060;-78
2022/07/30 11:37:59;;;;;;;17.63;7.72;;;;;;;;;;5054768;28;20037;-77
2022/07/30 11:40:44;;;;;;;11.60;7.20;;;;;;;;;;5054467;28;20387;-78
2022/07/30 11:43:32;;;;;;;10.75;6.63;;;;;;;;;;5059770;28;20053;-77
2022/07/30 11:46:23;;;;;;;10.23;6.30;;;;;;;;;;5060401;28;20049;-77
2022/07/30 11:49:09;;;;;;;8.40;6.50;;;;;;;;;;5060934;28;20049;-77
2022/07/30 11:51:54;;;;;;;8.20;6.43;;;;;;;;;;5061006;28;20041;-77
2022/07/30 11:54:51;;;;;;;7.95;6.25;;;;;;;;;;5053737;28;20045;-77
2022/07/30 11:57:41;;;;;;;8.05;6.40;;;;;;;;;;5053663;28;20041;-77
2022/07/30 12:00:46;;;;;;;9.85;6.63;;;;;;;;;;5056580;28;20383;-78
2022/07/30 12:03:32;;;;;;;8.85;6.38;;;;;;;;;;5057005;28;20045;-77
2022/07/30 12:06:18;;;;;;;5.88;5.28;;;;;;;;;;5058116;28;20052;-77
2022/07/30 12:09:04;;;;;;;8.52;5.30;;;;;;;;;;5057598;28;20052;-78
2022/07/30 12:11:49;;;;;;;10.05;5.13;;;;;;;;;;5059864;28;20040;-79
2022/07/30 12:14:37;;;;;;;7.10;5.70;;;;;;;;;;5057289;28;20410;-78
2022/07/30 12:17:40;;;;;;;10.48;7.28;;;;;;;;;;5063153;28;20049;-78
2022/07/30 12:20:25;;;;;;;10.30;5.93;;;;;;;;;;5041218;28;20057;-77
2022/07/30 12:23:12;;;;;;;8.38;6.30;;;;;;;;;;5056167;28;20052;-76
2022/07/30 12:25:57;;;;;;;6.55;4.13;;;;;;;;;;5056088;28;20045;-79
2022/07/30 12:28:44;;;;;;;6.75;3.67;;;;;;;;;;5063041;28;20041;-77
2022/07/30 12:31:32;;;;;;;4.70;3.78;;;;;;;;;;5062833;28;20041;-76
2022/07/30 12:34:25;;;;;;;5.85;3.72;;;;;;;;;;5063680;28;20045;-76
2022/07/30 12:37:10;;;;;;;6.25;4.20;;;;;;;;;;5062776;28;20049;-78
2022/07/30 12:40:13;;;;;;;8.43;4.88;;;;;;;;;;5062069;28;20406;-78
2022/07/30 12:42:58;;;;;;;6.35;3.70;;;;;;;;;;5063046;28;20474;-78
2022/07/30 12:45:44;;;;;;;6.57;4.13;;;;;;;;;;5055650;28;20483;-78
2022/07/30 12:48:29;;;;;;;6.03;4.20;;;;;;;;;;5055033;28;20084;-77
2022/07/30 12:51:15;;;;;;;6.28;4.28;;;;;;;;;;5055976;28;20478;-76
2022/07/30 12:54:12;;;;;;;7.35;4.50;;;;;;;;;;5062744;28;20049;-78
2022/07/30 12:57:00;;;;;;;10.00;4.57;;;;;;;;;;5057501;28;20045;-76
2022/07/30 12:59:45;;;;;;;19.00;4.55;;;;;;;;;;5059380;28;20045;-77
2022/07/30 13:02:33;;;;;;;12.63;4.85;;;;;;;;;;5059483;28;20053;-78
2022/07/30 13:05:19;;;;;;;6.25;4.63;;;;;;;;;;5057767;28;20041;-78
2022/07/30 13:08:04;;;;;;;9.23;4.50;;;;;;;;;;5065711;28;20033;-75
2022/07/30 13:11:00;;;;;;;8.07;4.95;;;;;;;;;;5057950;28;20037;-78
2022/07/30 13:13:47;;;;;;;10.27;5.03;;;;;;;;;;5063578;28;20037;-76
2022/07/30 13:16:35;;;;;;;8.10;4.45;;;;;;;;;;5058221;28;20045;-78
2022/07/30 13:19:21;;;;;;;25.27;4.85;;;;;;;;;;5064344;28;20053;-77
2022/07/30 13:22:06;;;;;;;19.77;4.60;;;;;;;;;;5055085;28;20037;-77
2022/07/30 13:24:51;;;;;;;15.10;4.97;;;;;;;;;;5062147;28;20045;-76
2022/07/30 13:27:36;;;;;;;12.25;5.80;;;;;;;;;;5055018;28;20041;-76
2022/07/30 13:30:22;;;;;;;14.65;6.88;;;;;;;;;;5061924;28;20398;-76
2022/07/30 13:33:07;;;;;;;6.38;4.85;;;;;;;;;;5061605;28;20037;-77
2022/07/30 13:35:53;;;;;;;13.60;6.88;;;;;;;;;;5055085;28;20037;-77
2022/07/30 13:38:38;;;;;;;10.82;5.43;;;;;;;;;;5061185;28;20045;-76
2022/07/30 13:41:24;;;;;;;9.63;5.35;;;;;;;;;;5055239;28;20045;-76
2022/07/30 13:44:10;;;;;;;13.57;6.00;;;;;;;;;;5054062;28;20045;-77
2022/07/30 13:46:55;;;;;;;12.57;6.78;;;;;;;;;;5054302;28;20045;-78
2022/07/30 13:49:45;;;;;;;10.35;6.88;;;;;;;;;;5054717;28;20053;-77
2022/07/30 13:52:30;;;;;;;10.18;6.40;;;;;;;;;;5054482;28;20049;-77
2022/07/30 13:55:16;;;;;;;12.82;6.53;;;;;;;;;;5054618;28;20053;-78
2022/07/30 13:58:03;;;;;;;11.20;6.53;;;;;;;;;;5060816;28;20398;-77
2022/07/30 14:00:48;;;;;;;12.95;7.10;;;;;;;;;;5054522;28;20048;-76
2022/07/30 14:03:34;;;;;;;14.35;7.32;;;;;;;;;;5054279;28;20049;-77
2022/07/30 14:06:21;;;;;;;14.82;10.38;;;;;;;;;;5054498;28;20045;-76
2022/07/30 14:09:06;;;;;;;12.95;8.00;;;;;;;;;;5054286;28;20049;-80
2022/07/30 14:11:54;;;;;;;14.15;8.05;;;;;;;;;;5060833;28;20041;-80
2022/07/30 14:14:43;;;;;;;12.65;7.28;;;;;;;;;;5061034;28;20466;-80
2022/07/30 14:17:29;;;;;;;11.20;7.97;;;;;;;;;;5060949;28;20386;-79
2022/07/30 14:20:15;;;;;;;25.55;9.38;;;;;;;;;;5053616;28;20065;-82
2022/07/30 14:23:00;;;;;;;16.25;8.93;;;;;;;;;;5053111;28;20033;-81
2022/07/30 14:25:45;;;;;;;14.57;9.45;;;;;;;;;;5053939;28;20418;-81
2022/07/30 14:28:31;;;;;;;20.83;10.80;;;;;;;;;;5060879;28;20049;-81
2022/07/30 14:31:16;;;;;;;19.45;10.52;;;;;;;;;;5054242;28;20041;-82
2022/07/30 14:34:02;;;;;;;27.00;13.50;;;;;;;;;;5068503;28;20045;-81
2022/07/30 14:36:48;;;;;;;21.30;14.00;;;;;;;;;;5061124;28;20045;-82
2022/07/30 14:39:33;;;;;;;22.05;15.18;;;;;;;;;;5060581;28;20049;-79
2022/07/30 14:42:19;;;;;;;20.98;15.38;;;;;;;;;;5060489;28;20048;-82
2022/07/30 14:45:06;;;;;;;20.77;16.90;;;;;;;;;;5054785;28;20045;-81
2022/07/30 14:47:51;;;;;;;21.17;17.15;;;;;;;;;;5053588;28;20402;-79
2022/07/30 14:50:37;;;;;;;25.20;17.90;;;;;;;;;;5053601;28;20048;-81
2022/07/30 14:53:22;;;;;;;27.10;20.30;;;;;;;;;;5053620;28;20040;-81
2022/07/30 14:56:08;;;;;;;23.33;20.15;;;;;;;;;;5053529;28;20402;-77
2022/07/30 14:58:53;;;;;;;18.40;15.02;;;;;;;;;;5053209;28;20053;-77
2022/07/30 15:01:40;;;;;;;27.73;24.58;;;;;;;;;;5060346;28;20045;-80
2022/07/30 15:04:25;;;;;;;580.03;464.15;;;;;;;;;;5053792;28;20041;-82
2022/07/30 15:07:11;;;;;;;158.02;113.10;;;;;;;;;;5053526;28;20053;-83
2022/07/30 15:09:57;;;;;;;255.32;216.68;;;;;;;;;;5060194;28;20053;-80
2022/07/30 15:12:42;;;;;;;24.17;19.05;;;;;;;;;;5053350;28;20049;-84
2022/07/30 15:15:28;;;;;;;18.33;13.88;;;;;;;;;;5053294;28;20402;-84
2022/07/30 15:18:13;;;;;;;21.58;15.75;;;;;;;;;;5053077;28;20037;-84
2022/07/30 15:20:59;;;;;;;39.28;25.50;;;;;;;;;;5053285;28;20394;-82
2022/07/30 15:23:45;;;;;;;20.42;14.90;;;;;;;;;;5053142;28;20494;-86
2022/07/30 15:26:30;;;;;;;14.10;12.20;;;;;;;;;;5060180;28;20041;-86
2022/07/30 15:29:16;;;;;;;12.73;10.63;;;;;;;;;;5053539;28;20052;-80
2022/07/30 15:32:02;;;;;;;11.18;10.07;;;;;;;;;;5053142;28;20049;-81
2022/07/30 15:34:47;;;;;;;10.60;9.50;;;;;;;;;;5054744;28;20037;-81
2022/07/30 15:37:32;;;;;;;10.95;9.80;;;;;;;;;;5057015;28;20037;-80
2022/07/30 15:40:18;;;;;;;12.10;9.98;;;;;;;;;;5063855;28;20041;-82
2022/07/30 15:43:04;;;;;;;15.60;10.52;;;;;;;;;;5056419;28;20044;-81
2022/07/30 15:45:49;;;;;;;12.98;8.73;;;;;;;;;;5063363;28;20401;-82
2022/07/30 15:48:36;;;;;;;12.48;9.27;;;;;;;;;;5056774;28;20041;-82
2022/07/30 15:51:22;;;;;;;14.30;10.05;;;;;;;;;;5056167;28;20395;-81
2022/07/30 15:54:07;;;;;;;11.77;8.45;;;;;;;;;;5056389;28;20391;-82
2022/07/30 15:56:53;;;;;;;12.05;8.82;;;;;;;;;;5063589;28;20053;-81
2022/07/30 15:59:38;;;;;;;11.20;7.57;;;;;;;;;;5056699;28;20037;-80
2022/07/30 16:02:24;;;;;;;12.32;9.18;;;;;;;;;;5056462;28;20049;-81
2022/07/30 16:05:13;;;;;;;13.18;10.50;;;;;;;;;;5056388;28;20045;-83
2022/07/30 16:07:58;;;;;;;11.43;9.60;;;;;;;;;;5065589;28;20045;-83
2022/07/30 16:10:44;;;;;;;9.65;6.90;;;;;;;;;;5058386;28;20037;-81
2022/07/30 16:13:30;;;;;;;19.17;10.57;;;;;;;;;;5056197;28;20049;-81
2022/07/30 16:16:16;;;;;;;17.10;11.75;;;;;;;;;;5056531;28;20052;-81
2022/07/30 16:19:01;;;;;;;16.55;11.27;;;;;;;;;;5062637;28;20049;-80
2022/07/30 16:21:47;;;;;;;16.98;11.43;;;;;;;;;;5056139;28;20053;-80
2022/07/30 16:24:33;;;;;;;12.48;10.07;;;;;;;;;;5055283;28;20048;-84
2022/07/30 16:27:18;;;;;;;15.13;10.45;;;;;;;;;;5055732;28;20037;-85
2022/07/30 16:30:04;;;;;;;12.75;10.60;;;;;;;;;;5056007;28;20049;-80
2022/07/30 16:32:50;;;;;;;13.93;9.80;;;;;;;;;;5055944;28;20045;-80
2022/07/30 16:35:36;;;;;;;11.02;9.93;;;;;;;;;;5056266;28;20148;-80
2022/07/30 16:38:24;;;;;;;12.60;10.00;;;;;;;;;;5055520;28;20045;-81
2022/07/30 16:41:11;;;;;;;11.88;10.40;;;;;;;;;;5055556;28;20045;-80
2022/07/30 16:43:56;;;;;;;12.60;10.32;;;;;;;;;;5056898;28;20398;-83